sensor_id;sensor_type;location;lat;lon;timestamp;temperature;humidity
44435;DHT22;30138;20.964;105.830;2023-08-17T00:04:54;30.60;98.70
44435;DHT22;30138;20.964;105.830;2023-08-17T00:10:02;30.60;98.90
44435;DHT22;30138;20.964;105.830;2023-08-17T00:15:09;30.70;99.00
44435;DHT22;30138;20.964;105.830;2023-08-17T00:20:15;30.70;99.20
44435;DHT22;30138;20.964;105.830;2023-08-17T00:25:23;30.70;99.90
44435;DHT22;30138;20.964;105.830;2023-08-17T00:30:29;30.70;99.90
44435;DHT22;30138;20.964;105.830;2023-08-17T00:35:42;30.80;99.90
44435;DHT22;30138;20.964;105.830;2023-08-17T00:40:50;30.70;99.90
44435;DHT22;30138;20.964;105.830;2023-08-17T00:45:58;30.80;99.90
44435;DHT22;30138;20.964;105.830;2023-08-17T00:51:04;30.80;99.90
44435;DHT22;30138;20.964;105.830;2023-08-17T00:56:12;30.80;99.90
44435;DHT22;30138;20.964;105.830;2023-08-17T01:01:20;30.80;99.90
44435;DHT22;30138;20.964;105.830;2023-08-17T01:06:26;30.80;99.90
44435;DHT22;30138;20.964;105.830;2023-08-17T01:11:38;30.90;99.90
44435;DHT22;30138;20.964;105.830;2023-08-17T01:16:55;31.00;99.90
44435;DHT22;30138;20.964;105.830;2023-08-17T01:22:05;31.10;99.90
44435;DHT22;30138;20.964;105.830;2023-08-17T01:27:15;31.20;99.90
44435;DHT22;30138;20.964;105.830;2023-08-17T01:32:26;31.20;99.90
44435;DHT22;30138;20.964;105.830;2023-08-17T01:37:35;31.20;99.90
44435;DHT22;30138;20.964;105.830;2023-08-17T01:42:47;31.30;99.90
44435;DHT22;30138;20.964;105.830;2023-08-17T01:47:55;31.30;99.90
44435;DHT22;30138;20.964;105.830;2023-08-17T01:53:02;31.30;99.90
44435;DHT22;30138;20.964;105.830;2023-08-17T01:58:12;31.30;99.90
44435;DHT22;30138;20.964;105.830;2023-08-17T02:03:18;31.30;99.90
44435;DHT22;30138;20.964;105.830;2023-08-17T02:08:24;31.40;99.90
44435;DHT22;30138;20.964;105.830;2023-08-17T02:13:32;31.40;99.90
44435;DHT22;30138;20.964;105.830;2023-08-17T02:18:39;31.40;99.90
44435;DHT22;30138;20.964;105.830;2023-08-17T02:23:46;31.40;99.90
44435;DHT22;30138;20.964;105.830;2023-08-17T02:28:55;31.50;99.90
44435;DHT22;30138;20.964;105.830;2023-08-17T02:34:01;31.50;99.90
44435;DHT22;30138;20.964;105.830;2023-08-17T02:39:08;31.50;99.90
44435;DHT22;30138;20.964;105.830;2023-08-17T02:44:15;31.50;99.90
44435;DHT22;30138;20.964;105.830;2023-08-17T02:49:21;31.50;99.90
44435;DHT22;30138;20.964;105.830;2023-08-17T02:54:28;31.60;99.90
44435;DHT22;30138;20.964;105.830;2023-08-17T02:59:35;31.60;99.90
44435;DHT22;30138;20.964;105.830;2023-08-17T03:04:43;31.70;99.90
44435;DHT22;30138;20.964;105.830;2023-08-17T03:09:49;31.70;99.90
44435;DHT22;30138;20.964;105.830;2023-08-17T03:14:57;31.70;99.90
44435;DHT22;30138;20.964;105.830;2023-08-17T03:20:05;31.70;99.90
44435;DHT22;30138;20.964;105.830;2023-08-17T03:25:12;31.80;99.90
44435;DHT22;30138;20.964;105.830;2023-08-17T03:30:20;31.80;99.90
44435;DHT22;30138;20.964;105.830;2023-08-17T03:35:27;31.80;99.90
44435;DHT22;30138;20.964;105.830;2023-08-17T03:40:33;31.90;99.90
44435;DHT22;30138;20.964;105.830;2023-08-17T03:45:42;31.90;99.90
44435;DHT22;30138;20.964;105.830;2023-08-17T03:50:52;32.00;99.90
44435;DHT22;30138;20.964;105.830;2023-08-17T03:56:00;32.00;99.90
44435;DHT22;30138;20.964;105.830;2023-08-17T04:01:08;32.00;99.90
44435;DHT22;30138;20.964;105.830;2023-08-17T04:06:17;32.00;99.90
44435;DHT22;30138;20.964;105.830;2023-08-17T04:11:29;32.10;99.90
44435;DHT22;30138;20.964;105.830;2023-08-17T04:16:37;32.10;99.90
44435;DHT22;30138;20.964;105.830;2023-08-17T04:21:47;32.10;99.90
44435;DHT22;30138;20.964;105.830;2023-08-17T04:26:54;32.20;99.90
44435;DHT22;30138;20.964;105.830;2023-08-17T04:32:04;32.20;99.90
44435;DHT22;30138;20.964;105.830;2023-08-17T04:37:13;32.20;99.90
44435;DHT22;30138;20.964;105.830;2023-08-17T04:42:21;32.30;99.90
44435;DHT22;30138;20.964;105.830;2023-08-17T04:47:30;32.30;99.90
44435;DHT22;30138;20.964;105.830;2023-08-17T04:52:36;32.30;99.90
44435;DHT22;30138;20.964;105.830;2023-08-17T04:57:43;32.30;99.90
44435;DHT22;30138;20.964;105.830;2023-08-17T05:02:51;32.30;99.90
44435;DHT22;30138;20.964;105.830;2023-08-17T05:08:04;32.40;99.90
44435;DHT22;30138;20.964;105.830;2023-08-17T05:13:12;32.40;99.90
44435;DHT22;30138;20.964;105.830;2023-08-17T05:18:19;32.50;99.90
44435;DHT22;30138;20.964;105.830;2023-08-17T05:23:26;32.50;99.90
44435;DHT22;30138;20.964;105.830;2023-08-17T05:28:33;32.50;99.90
44435;DHT22;30138;20.964;105.830;2023-08-17T05:33:42;32.50;99.90
44435;DHT22;30138;20.964;105.830;2023-08-17T05:38:48;32.50;99.90
44435;DHT22;30138;20.964;105.830;2023-08-17T05:43:55;32.30;98.50
44435;DHT22;30138;20.964;105.830;2023-08-17T05:55:20;31.90;76.60
44435;DHT22;30138;20.964;105.830;2023-08-17T06:00:27;31.50;68.70
44435;DHT22;30138;20.964;105.830;2023-08-17T06:05:35;31.30;64.20
44435;DHT22;30138;20.964;105.830;2023-08-17T06:10:43;31.00;61.30
44435;DHT22;30138;20.964;105.830;2023-08-17T06:15:50;30.80;60.60
44435;DHT22;30138;20.964;105.830;2023-08-17T06:20:58;30.70;62.70
44435;DHT22;30138;20.964;105.830;2023-08-17T06:26:08;30.70;63.80
44435;DHT22;30138;20.964;105.830;2023-08-17T06:31:16;30.60;60.40
44435;DHT22;30138;20.964;105.830;2023-08-17T06:36:25;30.50;58.50
44435;DHT22;30138;20.964;105.830;2023-08-17T06:41:36;30.50;62.90
44435;DHT22;30138;20.964;105.830;2023-08-17T06:46:42;30.40;59.50
44435;DHT22;30138;20.964;105.830;2023-08-17T06:51:52;30.40;62.70
44435;DHT22;30138;20.964;105.830;2023-08-17T06:57:23;30.40;60.10
44435;DHT22;30138;20.964;105.830;2023-08-17T07:02:31;30.40;61.30
44435;DHT22;30138;20.964;105.830;2023-08-17T07:07:38;30.40;60.20
44435;DHT22;30138;20.964;105.830;2023-08-17T07:12:47;30.30;58.40
44435;DHT22;30138;20.964;105.830;2023-08-17T07:17:52;30.40;60.50
44435;DHT22;30138;20.964;105.830;2023-08-17T07:22:59;30.30;57.40
44435;DHT22;30138;20.964;105.830;2023-08-17T07:28:08;30.30;58.70
44435;DHT22;30138;20.964;105.830;2023-08-17T07:33:13;30.30;58.50
44435;DHT22;30138;20.964;105.830;2023-08-17T07:38:23;30.30;55.90
44435;DHT22;30138;20.964;105.830;2023-08-17T07:43:31;30.10;53.90
44435;DHT22;30138;20.964;105.830;2023-08-17T07:48:38;30.20;57.80
44435;DHT22;30138;20.964;105.830;2023-08-17T07:53:44;30.20;55.50
44435;DHT22;30138;20.964;105.830;2023-08-17T07:58:54;30.00;53.60
44435;DHT22;30138;20.964;105.830;2023-08-17T08:04:00;30.10;56.80
44435;DHT22;30138;20.964;105.830;2023-08-17T08:09:06;30.10;55.70
44435;DHT22;30138;20.964;105.830;2023-08-17T08:14:15;30.10;56.60
44435;DHT22;30138;20.964;105.830;2023-08-17T08:19:22;30.20;67.60
44435;DHT22;30138;20.964;105.830;2023-08-17T08:24:57;30.20;66.50
44435;DHT22;30138;20.964;105.830;2023-08-17T08:30:06;30.20;66.10
44435;DHT22;30138;20.964;105.830;2023-08-17T08:35:12;30.30;66.00
44435;DHT22;30138;20.964;105.830;2023-08-17T08:40:20;30.30;66.00
44435;DHT22;30138;20.964;105.830;2023-08-17T08:45:35;30.30;67.60
44435;DHT22;30138;20.964;105.830;2023-08-17T08:50:44;30.50;71.80
44435;DHT22;30138;20.964;105.830;2023-08-17T08:55:57;30.80;77.00
44435;DHT22;30138;20.964;105.830;2023-08-17T09:01:07;31.00;81.40
44435;DHT22;30138;20.964;105.830;2023-08-17T09:06:16;31.20;83.90
44435;DHT22;30138;20.964;105.830;2023-08-17T09:11:23;31.40;86.40
44435;DHT22;30138;20.964;105.830;2023-08-17T09:16:31;31.50;88.90
44435;DHT22;30138;20.964;105.830;2023-08-17T09:21:39;31.70;90.40
44435;DHT22;30138;20.964;105.830;2023-08-17T09:26:46;31.80;91.20
44435;DHT22;30138;20.964;105.830;2023-08-17T09:31:55;31.90;91.80
44435;DHT22;30138;20.964;105.830;2023-08-17T09:37:04;32.00;92.20
44435;DHT22;30138;20.964;105.830;2023-08-17T09:47:43;32.20;92.90
44435;DHT22;30138;20.964;105.830;2023-08-17T09:52:53;32.30;93.10
44435;DHT22;30138;20.964;105.830;2023-08-17T09:58:03;32.30;93.20
44435;DHT22;30138;20.964;105.830;2023-08-17T10:03:12;32.40;93.30
44435;DHT22;30138;20.964;105.830;2023-08-17T10:08:21;32.50;93.50
44435;DHT22;30138;20.964;105.830;2023-08-17T10:13:33;32.50;93.60
44435;DHT22;30138;20.964;105.830;2023-08-17T10:18:50;32.60;93.70
44435;DHT22;30138;20.964;105.830;2023-08-17T10:23:59;32.70;93.80
44435;DHT22;30138;20.964;105.830;2023-08-17T10:29:06;32.70;94.00
44435;DHT22;30138;20.964;105.830;2023-08-17T10:34:14;32.80;94.10
44435;DHT22;30138;20.964;105.830;2023-08-17T10:39:25;32.80;94.20
44435;DHT22;30138;20.964;105.830;2023-08-17T10:44:44;32.80;94.40
44435;DHT22;30138;20.964;105.830;2023-08-17T10:49:57;32.80;94.50
44435;DHT22;30138;20.964;105.830;2023-08-17T10:55:06;32.80;94.50
44435;DHT22;30138;20.964;105.830;2023-08-17T11:00:17;32.90;94.70
44435;DHT22;30138;20.964;105.830;2023-08-17T11:05:40;32.90;94.70
44435;DHT22;30138;20.964;105.830;2023-08-17T11:10:58;33.00;94.90
44435;DHT22;30138;20.964;105.830;2023-08-17T11:16:07;33.00;95.00
44435;DHT22;30138;20.964;105.830;2023-08-17T11:21:16;33.00;95.10
44435;DHT22;30138;20.964;105.830;2023-08-17T11:26:23;33.00;95.20
44435;DHT22;30138;20.964;105.830;2023-08-17T11:31:32;33.00;95.40
44435;DHT22;30138;20.964;105.830;2023-08-17T11:36:40;33.00;95.50
44435;DHT22;30138;20.964;105.830;2023-08-17T11:41:46;33.10;95.60
44435;DHT22;30138;20.964;105.830;2023-08-17T11:46:54;33.10;95.80
44435;DHT22;30138;20.964;105.830;2023-08-17T11:52:10;33.10;95.90
44435;DHT22;30138;20.964;105.830;2023-08-17T11:57:20;33.10;96.00
44435;DHT22;30138;20.964;105.830;2023-08-17T12:02:33;33.20;96.20
44435;DHT22;30138;20.964;105.830;2023-08-17T12:07:46;33.20;96.30
44435;DHT22;30138;20.964;105.830;2023-08-17T12:12:53;33.20;96.40
44435;DHT22;30138;20.964;105.830;2023-08-17T12:18:08;33.20;96.50
44435;DHT22;30138;20.964;105.830;2023-08-17T12:23:17;33.20;96.60
44435;DHT22;30138;20.964;105.830;2023-08-17T12:28:25;33.20;96.70
44435;DHT22;30138;20.964;105.830;2023-08-17T12:33:31;33.20;96.80
44435;DHT22;30138;20.964;105.830;2023-08-17T12:38:39;33.20;97.00
44435;DHT22;30138;20.964;105.830;2023-08-17T12:43:47;33.20;97.00
44435;DHT22;30138;20.964;105.830;2023-08-17T12:48:57;33.20;97.10
44435;DHT22;30138;20.964;105.830;2023-08-17T12:54:06;33.30;97.30
44435;DHT22;30138;20.964;105.830;2023-08-17T12:59:12;33.20;97.40
44435;DHT22;30138;20.964;105.830;2023-08-17T13:04:30;33.30;97.60
44435;DHT22;30138;20.964;105.830;2023-08-17T13:09:45;33.30;97.60
44435;DHT22;30138;20.964;105.830;2023-08-17T13:14:54;33.30;97.70
44435;DHT22;30138;20.964;105.830;2023-08-17T13:20:01;33.30;98.00
44435;DHT22;30138;20.964;105.830;2023-08-17T13:25:10;33.30;98.00
44435;DHT22;30138;20.964;105.830;2023-08-17T13:30:16;33.30;98.10
44435;DHT22;30138;20.964;105.830;2023-08-17T13:35:24;33.30;98.20
44435;DHT22;30138;20.964;105.830;2023-08-17T13:40:32;33.30;98.50
44435;DHT22;30138;20.964;105.830;2023-08-17T13:45:39;33.40;98.50
44435;DHT22;30138;20.964;105.830;2023-08-17T13:50:49;33.40;98.60
44435;DHT22;30138;20.964;105.830;2023-08-17T13:55:56;33.40;98.80
44435;DHT22;30138;20.964;105.830;2023-08-17T14:01:04;33.40;99.20
44435;DHT22;30138;20.964;105.830;2023-08-17T14:06:10;33.40;99.00
44435;DHT22;30138;20.964;105.830;2023-08-17T14:11:20;33.40;99.10
44435;DHT22;30138;20.964;105.830;2023-08-17T14:16:27;33.40;99.10
44435;DHT22;30138;20.964;105.830;2023-08-17T14:21:34;33.40;99.30
44435;DHT22;30138;20.964;105.830;2023-08-17T14:26:44;33.40;99.40
44435;DHT22;30138;20.964;105.830;2023-08-17T14:31:55;33.40;99.50
44435;DHT22;30138;20.964;105.830;2023-08-17T14:37:06;33.40;99.60
44435;DHT22;30138;20.964;105.830;2023-08-17T14:42:15;33.40;99.60
44435;DHT22;30138;20.964;105.830;2023-08-17T14:47:21;33.40;99.70
44435;DHT22;30138;20.964;105.830;2023-08-17T14:52:27;33.40;99.90
44435;DHT22;30138;20.964;105.830;2023-08-17T14:57:36;33.10;91.60
44435;DHT22;30138;20.964;105.830;2023-08-17T15:02:42;32.80;79.40
44435;DHT22;30138;20.964;105.830;2023-08-17T15:07:50;32.50;73.30
44435;DHT22;30138;20.964;105.830;2023-08-17T15:12:59;32.30;68.20
44435;DHT22;30138;20.964;105.830;2023-08-17T15:18:05;32.10;68.00
44435;DHT22;30138;20.964;105.830;2023-08-17T15:23:11;31.90;63.20
44435;DHT22;30138;20.964;105.830;2023-08-17T15:28:19;31.60;60.50
44435;DHT22;30138;20.964;105.830;2023-08-17T15:33:28;31.50;58.60
44435;DHT22;30138;20.964;105.830;2023-08-17T15:38:34;31.30;57.10
44435;DHT22;30138;20.964;105.830;2023-08-17T15:43:43;31.00;55.70
44435;DHT22;30138;20.964;105.830;2023-08-17T15:48:49;30.90;55.00
44435;DHT22;30138;20.964;105.830;2023-08-17T15:54:06;30.70;54.20
44435;DHT22;30138;20.964;105.830;2023-08-17T15:59:14;30.60;53.30
44435;DHT22;30138;20.964;105.830;2023-08-17T16:04:21;30.40;55.80
44435;DHT22;30138;20.964;105.830;2023-08-17T16:09:34;30.30;55.10
44435;DHT22;30138;20.964;105.830;2023-08-17T16:14:53;30.20;53.60
44435;DHT22;30138;20.964;105.830;2023-08-17T16:20:04;30.10;59.60
44435;DHT22;30138;20.964;105.830;2023-08-17T16:25:14;30.10;57.30
44435;DHT22;30138;20.964;105.830;2023-08-17T16:30:23;29.90;55.30
44435;DHT22;30138;20.964;105.830;2023-08-17T16:35:33;29.90;54.10
44435;DHT22;30138;20.964;105.830;2023-08-17T16:40:41;29.70;53.50
44435;DHT22;30138;20.964;105.830;2023-08-17T16:45:57;29.60;52.70
44435;DHT22;30138;20.964;105.830;2023-08-17T16:51:04;29.50;52.50
44435;DHT22;30138;20.964;105.830;2023-08-17T16:56:13;29.50;52.00
44435;DHT22;30138;20.964;105.830;2023-08-17T17:01:24;29.30;51.80
44435;DHT22;30138;20.964;105.830;2023-08-17T17:06:31;29.30;51.50
44435;DHT22;30138;20.964;105.830;2023-08-17T17:11:41;29.20;51.30
44435;DHT22;30138;20.964;105.830;2023-08-17T17:16:50;29.10;51.30
44435;DHT22;30138;20.964;105.830;2023-08-17T17:21:56;29.10;51.30
44435;DHT22;30138;20.964;105.830;2023-08-17T17:27:03;29.00;51.30
44435;DHT22;30138;20.964;105.830;2023-08-17T17:32:13;29.00;51.40
44435;DHT22;30138;20.964;105.830;2023-08-17T17:37:20;28.90;51.30
44435;DHT22;30138;20.964;105.830;2023-08-17T17:42:26;28.90;51.40
44435;DHT22;30138;20.964;105.830;2023-08-17T17:47:35;29.00;53.90
44435;DHT22;30138;20.964;105.830;2023-08-17T17:52:41;29.00;53.90
44435;DHT22;30138;20.964;105.830;2023-08-17T17:57:48;28.90;52.80
44435;DHT22;30138;20.964;105.830;2023-08-17T18:03:07;28.90;52.10
44435;DHT22;30138;20.964;105.830;2023-08-17T18:08:16;29.00;56.60
44435;DHT22;30138;20.964;105.830;2023-08-17T18:13:23;29.10;63.00
44435;DHT22;30138;20.964;105.830;2023-08-17T18:18:32;29.20;65.70
44435;DHT22;30138;20.964;105.830;2023-08-17T18:23:39;29.20;77.50
44435;DHT22;30138;20.964;105.830;2023-08-17T18:28:46;29.30;72.80
44435;DHT22;30138;20.964;105.830;2023-08-17T18:33:54;29.20;67.00
44435;DHT22;30138;20.964;105.830;2023-08-17T18:39:01;29.40;70.10
44435;DHT22;30138;20.964;105.830;2023-08-17T18:44:08;29.70;72.80
44435;DHT22;30138;20.964;105.830;2023-08-17T18:49:16;29.90;74.60
44435;DHT22;30138;20.964;105.830;2023-08-17T18:54:22;30.20;76.40
44435;DHT22;30138;20.964;105.830;2023-08-17T18:59:28;30.30;77.90
44435;DHT22;30138;20.964;105.830;2023-08-17T19:04:38;30.50;79.40
44435;DHT22;30138;20.964;105.830;2023-08-17T19:09:46;30.60;81.00
44435;DHT22;30138;20.964;105.830;2023-08-17T19:14:54;30.70;82.30
44435;DHT22;30138;20.964;105.830;2023-08-17T19:20:03;30.80;83.80
44435;DHT22;30138;20.964;105.830;2023-08-17T19:25:11;30.80;86.00
44435;DHT22;30138;20.964;105.830;2023-08-17T19:30:17;30.90;86.90
44435;DHT22;30138;20.964;105.830;2023-08-17T19:35:26;31.00;88.40
44435;DHT22;30138;20.964;105.830;2023-08-17T19:40:33;31.10;89.70
44435;DHT22;30138;20.964;105.830;2023-08-17T19:45:39;31.20;90.40
44435;DHT22;30138;20.964;105.830;2023-08-17T19:50:48;31.20;91.00
44435;DHT22;30138;20.964;105.830;2023-08-17T19:55:58;31.10;80.80
44435;DHT22;30138;20.964;105.830;2023-08-17T20:01:07;31.00;78.70
44435;DHT22;30138;20.964;105.830;2023-08-17T20:06:16;30.90;70.60
44435;DHT22;30138;20.964;105.830;2023-08-17T20:11:23;30.80;72.30
44435;DHT22;30138;20.964;105.830;2023-08-17T20:16:29;30.60;66.40
44435;DHT22;30138;20.964;105.830;2023-08-17T20:21:37;30.50;68.00
44435;DHT22;30138;20.964;105.830;2023-08-17T20:26:43;30.40;65.50
44435;DHT22;30138;20.964;105.830;2023-08-17T20:31:50;30.30;66.10
44435;DHT22;30138;20.964;105.830;2023-08-17T20:36:59;30.30;65.60
44435;DHT22;30138;20.964;105.830;2023-08-17T20:42:08;30.20;65.50
44435;DHT22;30138;20.964;105.830;2023-08-17T20:47:15;30.10;65.80
44435;DHT22;30138;20.964;105.830;2023-08-17T20:52:24;30.00;65.10
44435;DHT22;30138;20.964;105.830;2023-08-17T20:57:31;30.00;66.20
44435;DHT22;30138;20.964;105.830;2023-08-17T21:02:38;30.00;64.60
44435;DHT22;30138;20.964;105.830;2023-08-17T21:07:46;30.00;66.30
44435;DHT22;30138;20.964;105.830;2023-08-17T21:12:52;29.90;63.80
44435;DHT22;30138;20.964;105.830;2023-08-17T21:17:59;29.90;66.10
44435;DHT22;30138;20.964;105.830;2023-08-17T21:23:07;29.80;63.30
44435;DHT22;30138;20.964;105.830;2023-08-17T21:28:15;29.80;66.30
44435;DHT22;30138;20.964;105.830;2023-08-17T21:33:22;29.80;62.80
44435;DHT22;30138;20.964;105.830;2023-08-17T21:38:30;29.80;66.30
44435;DHT22;30138;20.964;105.830;2023-08-17T21:43:36;29.70;62.40
44435;DHT22;30138;20.964;105.830;2023-08-17T21:48:43;29.70;66.20
44435;DHT22;30138;20.964;105.830;2023-08-17T21:53:52;29.60;61.60
44435;DHT22;30138;20.964;105.830;2023-08-17T21:58:58;29.60;65.90
44435;DHT22;30138;20.964;105.830;2023-08-17T22:04:05;29.50;61.60
44435;DHT22;30138;20.964;105.830;2023-08-17T22:09:13;29.60;66.90
44435;DHT22;30138;20.964;105.830;2023-08-17T22:14:20;29.40;61.10
44435;DHT22;30138;20.964;105.830;2023-08-17T22:19:27;29.50;65.60
44435;DHT22;30138;20.964;105.830;2023-08-17T22:24:35;29.40;60.90
44435;DHT22;30138;20.964;105.830;2023-08-17T22:29:42;29.50;65.50
44435;DHT22;30138;20.964;105.830;2023-08-17T22:34:49;29.30;60.70
44435;DHT22;30138;20.964;105.830;2023-08-17T22:39:57;29.40;65.10
44435;DHT22;30138;20.964;105.830;2023-08-17T22:45:05;29.20;60.70
44435;DHT22;30138;20.964;105.830;2023-08-17T22:50:12;29.30;64.70
44435;DHT22;30138;20.964;105.830;2023-08-17T22:55:20;29.20;60.90
44435;DHT22;30138;20.964;105.830;2023-08-17T23:00:26;29.20;64.70
44435;DHT22;30138;20.964;105.830;2023-08-17T23:05:33;29.20;61.00
44435;DHT22;30138;20.964;105.830;2023-08-17T23:10:42;29.20;64.30
44435;DHT22;30138;20.964;105.830;2023-08-17T23:15:48;29.10;61.30
44435;DHT22;30138;20.964;105.830;2023-08-17T23:20:54;29.10;64.00
44435;DHT22;30138;20.964;105.830;2023-08-17T23:26:02;29.00;61.60
44435;DHT22;30138;20.964;105.830;2023-08-17T23:31:08;29.10;63.70
44435;DHT22;30138;20.964;105.830;2023-08-17T23:36:14;29.00;61.60
44435;DHT22;30138;20.964;105.830;2023-08-17T23:41:22;29.10;63.60
44435;DHT22;30138;20.964;105.830;2023-08-17T23:46:28;29.10;61.80
44435;DHT22;30138;20.964;105.830;2023-08-17T23:51:35;29.10;63.20
44435;DHT22;30138;20.964;105.830;2023-08-17T23:56:44;29.10;61.90
